sensor_id;sensor_type;location;lat;lon;timestamp;P1;durP1;ratioP1;P2;durP2;ratioP2
53533;SDS011;39421;53.204;6.568;2022-09-29T00:01:08;2.93;;;2.37;;
53533;SDS011;39421;53.204;6.568;2022-09-29T00:03:35;5.32;;;2.90;;
53533;SDS011;39421;53.204;6.568;2022-09-29T00:06:01;3.70;;;2.83;;
53533;SDS011;39421;53.204;6.568;2022-09-29T00:08:27;5.00;;;3.00;;
53533;SDS011;39421;53.204;6.568;2022-09-29T00:10:54;4.53;;;3.10;;
53533;SDS011;39421;53.204;6.568;2022-09-29T00:13:20;3.92;;;3.20;;
53533;SDS011;39421;53.204;6.568;2022-09-29T00:15:59;5.13;;;3.67;;
53533;SDS011;39421;53.204;6.568;2022-09-29T00:18:26;4.72;;;3.13;;
53533;SDS011;39421;53.204;6.568;2022-09-29T00:20:57;5.05;;;3.80;;
53533;SDS011;39421;53.204;6.568;2022-09-29T00:23:24;3.97;;;3.55;;
53533;SDS011;39421;53.204;6.568;2022-09-29T00:26:07;6.22;;;4.40;;
53533;SDS011;39421;53.204;6.568;2022-09-29T00:28:39;5.80;;;3.75;;
53533;SDS011;39421;53.204;6.568;2022-09-29T00:31:07;4.20;;;3.40;;
53533;SDS011;39421;53.204;6.568;2022-09-29T00:33:35;5.40;;;4.10;;
53533;SDS011;39421;53.204;6.568;2022-09-29T00:36:03;5.40;;;3.80;;
53533;SDS011;39421;53.204;6.568;2022-09-29T00:38:30;4.73;;;3.50;;
53533;SDS011;39421;53.204;6.568;2022-09-29T00:40:58;3.90;;;3.50;;
53533;SDS011;39421;53.204;6.568;2022-09-29T00:46:26;5.60;;;4.13;;
53533;SDS011;39421;53.204;6.568;2022-09-29T00:48:56;4.82;;;4.03;;
53533;SDS011;39421;53.204;6.568;2022-09-29T00:51:26;7.03;;;4.00;;
53533;SDS011;39421;53.204;6.568;2022-09-29T00:53:53;4.47;;;3.85;;
53533;SDS011;39421;53.204;6.568;2022-09-29T00:56:21;4.45;;;3.90;;
53533;SDS011;39421;53.204;6.568;2022-09-29T01:01:19;5.70;;;4.75;;
53533;SDS011;39421;53.204;6.568;2022-09-29T01:03:46;5.45;;;4.65;;
53533;SDS011;39421;53.204;6.568;2022-09-29T01:06:21;5.13;;;4.30;;
53533;SDS011;39421;53.204;6.568;2022-09-29T01:09:00;6.93;;;4.85;;
53533;SDS011;39421;53.204;6.568;2022-09-29T01:11:34;5.50;;;4.90;;
53533;SDS011;39421;53.204;6.568;2022-09-29T01:14:01;5.25;;;4.50;;
53533;SDS011;39421;53.204;6.568;2022-09-29T01:16:30;5.75;;;4.80;;
53533;SDS011;39421;53.204;6.568;2022-09-29T01:18:57;5.88;;;5.28;;
53533;SDS011;39421;53.204;6.568;2022-09-29T01:24:54;6.82;;;5.75;;
53533;SDS011;39421;53.204;6.568;2022-09-29T01:36:06;6.63;;;5.93;;
53533;SDS011;39421;53.204;6.568;2022-09-29T01:38:44;7.03;;;5.90;;
53533;SDS011;39421;53.204;6.568;2022-09-29T01:46:35;7.25;;;6.03;;
53533;SDS011;39421;53.204;6.568;2022-09-29T01:49:12;7.88;;;6.20;;
53533;SDS011;39421;53.204;6.568;2022-09-29T01:51:46;7.80;;;6.28;;
53533;SDS011;39421;53.204;6.568;2022-09-29T01:54:20;7.60;;;6.43;;
53533;SDS011;39421;53.204;6.568;2022-09-29T01:56:59;7.25;;;6.05;;
53533;SDS011;39421;53.204;6.568;2022-09-29T01:59:48;6.88;;;6.00;;
53533;SDS011;39421;53.204;6.568;2022-09-29T02:02:23;7.40;;;6.60;;
53533;SDS011;39421;53.204;6.568;2022-09-29T02:05:19;8.38;;;6.85;;
53533;SDS011;39421;53.204;6.568;2022-09-29T02:07:53;8.25;;;6.63;;
53533;SDS011;39421;53.204;6.568;2022-09-29T02:10:27;7.50;;;6.70;;
53533;SDS011;39421;53.204;6.568;2022-09-29T02:13:00;8.45;;;6.97;;
53533;SDS011;39421;53.204;6.568;2022-09-29T02:15:31;8.20;;;6.90;;
53533;SDS011;39421;53.204;6.568;2022-09-29T02:18:08;9.15;;;7.63;;
53533;SDS011;39421;53.204;6.568;2022-09-29T02:20:40;9.03;;;7.43;;
53533;SDS011;39421;53.204;6.568;2022-09-29T02:23:05;8.35;;;6.80;;
53533;SDS011;39421;53.204;6.568;2022-09-29T02:25:33;8.68;;;7.78;;
53533;SDS011;39421;53.204;6.568;2022-09-29T02:28:01;8.80;;;7.90;;
53533;SDS011;39421;53.204;6.568;2022-09-29T02:30:28;9.20;;;8.07;;
53533;SDS011;39421;53.204;6.568;2022-09-29T02:32:53;8.50;;;7.60;;
53533;SDS011;39421;53.204;6.568;2022-09-29T02:35:19;9.17;;;7.80;;
53533;SDS011;39421;53.204;6.568;2022-09-29T02:37:47;9.50;;;7.80;;
53533;SDS011;39421;53.204;6.568;2022-09-29T02:43:23;8.27;;;7.28;;
53533;SDS011;39421;53.204;6.568;2022-09-29T02:46:04;8.70;;;7.80;;
53533;SDS011;39421;53.204;6.568;2022-09-29T02:48:39;8.80;;;7.22;;
53533;SDS011;39421;53.204;6.568;2022-09-29T02:54:17;9.38;;;7.85;;
53533;SDS011;39421;53.204;6.568;2022-09-29T03:02:34;8.48;;;7.35;;
53533;SDS011;39421;53.204;6.568;2022-09-29T03:05:02;9.43;;;7.55;;
53533;SDS011;39421;53.204;6.568;2022-09-29T03:07:30;7.82;;;7.00;;
53533;SDS011;39421;53.204;6.568;2022-09-29T03:09:55;8.70;;;7.80;;
53533;SDS011;39421;53.204;6.568;2022-09-29T03:12:21;9.80;;;7.80;;
53533;SDS011;39421;53.204;6.568;2022-09-29T03:14:47;8.25;;;7.22;;
53533;SDS011;39421;53.204;6.568;2022-09-29T03:17:12;8.40;;;7.47;;
53533;SDS011;39421;53.204;6.568;2022-09-29T03:19:38;8.70;;;7.80;;
53533;SDS011;39421;53.204;6.568;2022-09-29T03:22:03;10.90;;;8.20;;
53533;SDS011;39421;53.204;6.568;2022-09-29T03:24:29;10.20;;;8.23;;
53533;SDS011;39421;53.204;6.568;2022-09-29T03:26:55;9.38;;;7.68;;
53533;SDS011;39421;53.204;6.568;2022-09-29T03:29:21;9.27;;;7.87;;
53533;SDS011;39421;53.204;6.568;2022-09-29T03:31:47;9.43;;;8.10;;
53533;SDS011;39421;53.204;6.568;2022-09-29T03:34:13;8.65;;;7.63;;
53533;SDS011;39421;53.204;6.568;2022-09-29T03:36:39;8.15;;;7.10;;
53533;SDS011;39421;53.204;6.568;2022-09-29T03:39:05;9.25;;;7.80;;
53533;SDS011;39421;53.204;6.568;2022-09-29T03:41:31;8.20;;;7.35;;
53533;SDS011;39421;53.204;6.568;2022-09-29T03:43:57;7.65;;;6.85;;
53533;SDS011;39421;53.204;6.568;2022-09-29T03:46:23;8.20;;;7.35;;
53533;SDS011;39421;53.204;6.568;2022-09-29T03:48:49;8.00;;;7.20;;
53533;SDS011;39421;53.204;6.568;2022-09-29T03:51:14;8.63;;;7.17;;
53533;SDS011;39421;53.204;6.568;2022-09-29T03:53:40;9.23;;;7.93;;
53533;SDS011;39421;53.204;6.568;2022-09-29T03:56:06;8.70;;;7.63;;
53533;SDS011;39421;53.204;6.568;2022-09-29T03:58:32;9.70;;;7.95;;
53533;SDS011;39421;53.204;6.568;2022-09-29T04:00:58;8.75;;;7.35;;
53533;SDS011;39421;53.204;6.568;2022-09-29T04:03:24;9.00;;;8.10;;
53533;SDS011;39421;53.204;6.568;2022-09-29T04:05:50;9.23;;;7.63;;
53533;SDS011;39421;53.204;6.568;2022-09-29T04:08:15;9.50;;;7.30;;
53533;SDS011;39421;53.204;6.568;2022-09-29T04:10:41;9.60;;;7.60;;
53533;SDS011;39421;53.204;6.568;2022-09-29T04:13:07;9.13;;;7.90;;
53533;SDS011;39421;53.204;6.568;2022-09-29T04:15:33;10.18;;;7.95;;
53533;SDS011;39421;53.204;6.568;2022-09-29T04:17:59;8.70;;;7.80;;
53533;SDS011;39421;53.204;6.568;2022-09-29T04:20:25;8.95;;;7.90;;
53533;SDS011;39421;53.204;6.568;2022-09-29T04:22:51;9.65;;;7.53;;
53533;SDS011;39421;53.204;6.568;2022-09-29T04:25:16;8.90;;;7.93;;
53533;SDS011;39421;53.204;6.568;2022-09-29T04:27:43;9.13;;;8.13;;
53533;SDS011;39421;53.204;6.568;2022-09-29T04:30:08;9.07;;;8.18;;
53533;SDS011;39421;53.204;6.568;2022-09-29T04:32:35;10.70;;;8.43;;
53533;SDS011;39421;53.204;6.568;2022-09-29T04:35:00;10.07;;;8.32;;
53533;SDS011;39421;53.204;6.568;2022-09-29T04:37:26;9.70;;;8.23;;
53533;SDS011;39421;53.204;6.568;2022-09-29T04:39:52;10.60;;;8.73;;
53533;SDS011;39421;53.204;6.568;2022-09-29T04:42:18;11.30;;;8.20;;
53533;SDS011;39421;53.204;6.568;2022-09-29T04:44:44;10.38;;;8.25;;
53533;SDS011;39421;53.204;6.568;2022-09-29T04:47:10;10.75;;;8.90;;
53533;SDS011;39421;53.204;6.568;2022-09-29T04:49:36;10.73;;;8.50;;
53533;SDS011;39421;53.204;6.568;2022-09-29T04:52:02;9.43;;;8.40;;
53533;SDS011;39421;53.204;6.568;2022-09-29T04:54:31;9.35;;;8.40;;
53533;SDS011;39421;53.204;6.568;2022-09-29T04:56:58;11.27;;;9.05;;
53533;SDS011;39421;53.204;6.568;2022-09-29T04:59:25;10.40;;;8.85;;
53533;SDS011;39421;53.204;6.568;2022-09-29T05:01:52;9.77;;;8.55;;
53533;SDS011;39421;53.204;6.568;2022-09-29T05:04:17;10.35;;;8.57;;
53533;SDS011;39421;53.204;6.568;2022-09-29T05:06:43;10.75;;;8.77;;
53533;SDS011;39421;53.204;6.568;2022-09-29T05:09:09;10.30;;;8.45;;
53533;SDS011;39421;53.204;6.568;2022-09-29T05:11:35;10.97;;;8.30;;
53533;SDS011;39421;53.204;6.568;2022-09-29T05:14:01;10.07;;;8.20;;
53533;SDS011;39421;53.204;6.568;2022-09-29T05:16:26;10.00;;;8.73;;
53533;SDS011;39421;53.204;6.568;2022-09-29T05:18:52;10.40;;;8.98;;
53533;SDS011;39421;53.204;6.568;2022-09-29T05:21:18;10.40;;;9.23;;
53533;SDS011;39421;53.204;6.568;2022-09-29T05:23:43;11.27;;;10.07;;
53533;SDS011;39421;53.204;6.568;2022-09-29T05:26:10;11.47;;;9.93;;
53533;SDS011;39421;53.204;6.568;2022-09-29T05:28:37;12.38;;;9.85;;
53533;SDS011;39421;53.204;6.568;2022-09-29T05:31:07;13.50;;;10.43;;
53533;SDS011;39421;53.204;6.568;2022-09-29T05:33:33;12.20;;;10.30;;
53533;SDS011;39421;53.204;6.568;2022-09-29T05:35:59;11.75;;;9.93;;
53533;SDS011;39421;53.204;6.568;2022-09-29T05:38:25;11.15;;;9.55;;
53533;SDS011;39421;53.204;6.568;2022-09-29T05:40:52;12.88;;;10.40;;
53533;SDS011;39421;53.204;6.568;2022-09-29T05:43:18;12.07;;;10.02;;
53533;SDS011;39421;53.204;6.568;2022-09-29T05:45:44;15.20;;;10.73;;
53533;SDS011;39421;53.204;6.568;2022-09-29T05:48:10;12.07;;;9.37;;
53533;SDS011;39421;53.204;6.568;2022-09-29T05:50:36;10.65;;;8.93;;
53533;SDS011;39421;53.204;6.568;2022-09-29T05:53:12;10.93;;;8.80;;
53533;SDS011;39421;53.204;6.568;2022-09-29T05:55:37;11.50;;;8.65;;
53533;SDS011;39421;53.204;6.568;2022-09-29T05:58:04;10.43;;;7.63;;
53533;SDS011;39421;53.204;6.568;2022-09-29T06:00:30;9.30;;;7.93;;
53533;SDS011;39421;53.204;6.568;2022-09-29T06:03:00;10.65;;;8.18;;
53533;SDS011;39421;53.204;6.568;2022-09-29T06:05:26;9.63;;;8.23;;
53533;SDS011;39421;53.204;6.568;2022-09-29T06:07:52;11.93;;;8.50;;
53533;SDS011;39421;53.204;6.568;2022-09-29T06:10:18;9.52;;;8.05;;
53533;SDS011;39421;53.204;6.568;2022-09-29T06:12:44;10.00;;;8.38;;
53533;SDS011;39421;53.204;6.568;2022-09-29T06:15:11;9.70;;;8.57;;
53533;SDS011;39421;53.204;6.568;2022-09-29T06:17:36;9.88;;;7.88;;
53533;SDS011;39421;53.204;6.568;2022-09-29T06:20:02;10.70;;;8.57;;
53533;SDS011;39421;53.204;6.568;2022-09-29T06:22:29;9.70;;;8.70;;
53533;SDS011;39421;53.204;6.568;2022-09-29T06:24:54;10.15;;;8.63;;
53533;SDS011;39421;53.204;6.568;2022-09-29T06:27:20;12.95;;;8.95;;
53533;SDS011;39421;53.204;6.568;2022-09-29T06:29:46;11.95;;;9.18;;
53533;SDS011;39421;53.204;6.568;2022-09-29T06:32:12;11.38;;;8.30;;
53533;SDS011;39421;53.204;6.568;2022-09-29T06:34:37;9.67;;;8.60;;
53533;SDS011;39421;53.204;6.568;2022-09-29T06:37:23;11.50;;;8.60;;
53533;SDS011;39421;53.204;6.568;2022-09-29T06:39:58;9.95;;;8.95;;
53533;SDS011;39421;53.204;6.568;2022-09-29T06:42:24;11.45;;;9.27;;
53533;SDS011;39421;53.204;6.568;2022-09-29T06:44:50;12.00;;;9.52;;
53533;SDS011;39421;53.204;6.568;2022-09-29T06:47:16;11.65;;;9.10;;
53533;SDS011;39421;53.204;6.568;2022-09-29T06:49:41;10.53;;;8.93;;
53533;SDS011;39421;53.204;6.568;2022-09-29T06:52:07;11.07;;;9.43;;
53533;SDS011;39421;53.204;6.568;2022-09-29T06:54:33;11.67;;;9.50;;
53533;SDS011;39421;53.204;6.568;2022-09-29T06:56:58;12.13;;;9.83;;
53533;SDS011;39421;53.204;6.568;2022-09-29T06:59:25;12.30;;;9.65;;
53533;SDS011;39421;53.204;6.568;2022-09-29T07:01:50;12.60;;;9.50;;
53533;SDS011;39421;53.204;6.568;2022-09-29T07:04:17;15.13;;;10.48;;
53533;SDS011;39421;53.204;6.568;2022-09-29T07:06:43;14.00;;;9.70;;
53533;SDS011;39421;53.204;6.568;2022-09-29T07:09:10;12.48;;;10.00;;
53533;SDS011;39421;53.204;6.568;2022-09-29T07:11:40;11.80;;;9.88;;
53533;SDS011;39421;53.204;6.568;2022-09-29T07:14:16;12.07;;;9.90;;
53533;SDS011;39421;53.204;6.568;2022-09-29T07:16:47;12.13;;;9.57;;
53533;SDS011;39421;53.204;6.568;2022-09-29T07:19:13;12.95;;;9.73;;
53533;SDS011;39421;53.204;6.568;2022-09-29T07:21:40;11.43;;;9.27;;
53533;SDS011;39421;53.204;6.568;2022-09-29T07:24:06;12.33;;;9.83;;
53533;SDS011;39421;53.204;6.568;2022-09-29T07:26:33;11.35;;;9.80;;
53533;SDS011;39421;53.204;6.568;2022-09-29T07:28:59;11.98;;;9.50;;
53533;SDS011;39421;53.204;6.568;2022-09-29T07:31:24;11.60;;;9.88;;
53533;SDS011;39421;53.204;6.568;2022-09-29T07:33:50;13.48;;;10.43;;
53533;SDS011;39421;53.204;6.568;2022-09-29T07:36:18;11.98;;;9.40;;
53533;SDS011;39421;53.204;6.568;2022-09-29T07:38:45;10.98;;;9.45;;
53533;SDS011;39421;53.204;6.568;2022-09-29T07:41:12;12.07;;;9.73;;
53533;SDS011;39421;53.204;6.568;2022-09-29T07:43:38;10.98;;;9.25;;
53533;SDS011;39421;53.204;6.568;2022-09-29T07:46:04;11.23;;;8.85;;
53533;SDS011;39421;53.204;6.568;2022-09-29T07:48:31;11.90;;;9.30;;
53533;SDS011;39421;53.204;6.568;2022-09-29T07:51:08;11.95;;;9.52;;
53533;SDS011;39421;53.204;6.568;2022-09-29T07:53:40;12.25;;;9.55;;
53533;SDS011;39421;53.204;6.568;2022-09-29T07:56:07;12.20;;;9.05;;
53533;SDS011;39421;53.204;6.568;2022-09-29T07:58:37;10.07;;;8.83;;
53533;SDS011;39421;53.204;6.568;2022-09-29T08:01:04;10.50;;;9.00;;
53533;SDS011;39421;53.204;6.568;2022-09-29T08:03:34;12.57;;;8.77;;
53533;SDS011;39421;53.204;6.568;2022-09-29T08:06:00;11.27;;;8.67;;
53533;SDS011;39421;53.204;6.568;2022-09-29T08:08:26;11.77;;;8.82;;
53533;SDS011;39421;53.204;6.568;2022-09-29T08:10:59;10.32;;;8.63;;
53533;SDS011;39421;53.204;6.568;2022-09-29T08:13:29;10.50;;;8.50;;
53533;SDS011;39421;53.204;6.568;2022-09-29T08:15:59;11.15;;;8.88;;
53533;SDS011;39421;53.204;6.568;2022-09-29T08:18:26;10.70;;;8.20;;
53533;SDS011;39421;53.204;6.568;2022-09-29T08:20:52;10.85;;;8.52;;
53533;SDS011;39421;53.204;6.568;2022-09-29T08:23:18;10.27;;;8.63;;
53533;SDS011;39421;53.204;6.568;2022-09-29T08:25:44;10.68;;;8.63;;
53533;SDS011;39421;53.204;6.568;2022-09-29T08:28:10;11.23;;;8.63;;
53533;SDS011;39421;53.204;6.568;2022-09-29T08:30:36;10.67;;;8.50;;
53533;SDS011;39421;53.204;6.568;2022-09-29T08:33:02;11.35;;;9.25;;
53533;SDS011;39421;53.204;6.568;2022-09-29T08:35:28;13.32;;;9.00;;
53533;SDS011;39421;53.204;6.568;2022-09-29T08:37:54;10.97;;;8.83;;
53533;SDS011;39421;53.204;6.568;2022-09-29T08:40:21;10.95;;;9.07;;
53533;SDS011;39421;53.204;6.568;2022-09-29T08:46:01;11.07;;;8.98;;
53533;SDS011;39421;53.204;6.568;2022-09-29T08:48:33;10.55;;;8.63;;
53533;SDS011;39421;53.204;6.568;2022-09-29T08:51:11;12.38;;;8.70;;
53533;SDS011;39421;53.204;6.568;2022-09-29T08:53:49;10.65;;;8.65;;
53533;SDS011;39421;53.204;6.568;2022-09-29T08:56:18;10.45;;;8.57;;
53533;SDS011;39421;53.204;6.568;2022-09-29T08:58:45;12.98;;;9.32;;
53533;SDS011;39421;53.204;6.568;2022-09-29T09:03:54;10.05;;;7.60;;
53533;SDS011;39421;53.204;6.568;2022-09-29T09:11:55;8.77;;;6.55;;
53533;SDS011;39421;53.204;6.568;2022-09-29T09:17:45;7.95;;;6.70;;
53533;SDS011;39421;53.204;6.568;2022-09-29T09:20:43;6.78;;;5.50;;
53533;SDS011;39421;53.204;6.568;2022-09-29T09:23:17;7.38;;;5.75;;
53533;SDS011;39421;53.204;6.568;2022-09-29T09:25:48;6.53;;;5.68;;
53533;SDS011;39421;53.204;6.568;2022-09-29T09:28:29;6.43;;;5.60;;
53533;SDS011;39421;53.204;6.568;2022-09-29T09:31:23;7.95;;;5.97;;
53533;SDS011;39421;53.204;6.568;2022-09-29T09:34:05;6.95;;;5.80;;
53533;SDS011;39421;53.204;6.568;2022-09-29T09:39:14;8.93;;;6.30;;
53533;SDS011;39421;53.204;6.568;2022-09-29T09:41:47;8.40;;;5.68;;
53533;SDS011;39421;53.204;6.568;2022-09-29T09:44:17;8.32;;;5.50;;
53533;SDS011;39421;53.204;6.568;2022-09-29T09:46:50;5.53;;;4.55;;
53533;SDS011;39421;53.204;6.568;2022-09-29T09:49:37;6.10;;;5.10;;
53533;SDS011;39421;53.204;6.568;2022-09-29T09:55:17;5.95;;;4.00;;
53533;SDS011;39421;53.204;6.568;2022-09-29T10:00:53;5.50;;;3.40;;
53533;SDS011;39421;53.204;6.568;2022-09-29T10:03:22;7.20;;;3.53;;
53533;SDS011;39421;53.204;6.568;2022-09-29T10:05:48;4.18;;;3.00;;
53533;SDS011;39421;53.204;6.568;2022-09-29T10:08:16;3.95;;;2.72;;
53533;SDS011;39421;53.204;6.568;2022-09-29T10:10:49;3.25;;;2.40;;
53533;SDS011;39421;53.204;6.568;2022-09-29T10:13:16;3.92;;;2.60;;
53533;SDS011;39421;53.204;6.568;2022-09-29T10:15:44;4.63;;;3.07;;
53533;SDS011;39421;53.204;6.568;2022-09-29T10:20:45;4.60;;;2.67;;
53533;SDS011;39421;53.204;6.568;2022-09-29T10:23:25;4.00;;;2.35;;
53533;SDS011;39421;53.204;6.568;2022-09-29T10:26:00;2.88;;;2.30;;
53533;SDS011;39421;53.204;6.568;2022-09-29T10:28:51;6.18;;;2.95;;
53533;SDS011;39421;53.204;6.568;2022-09-29T10:33:48;4.63;;;2.30;;
53533;SDS011;39421;53.204;6.568;2022-09-29T10:36:16;4.28;;;2.30;;
53533;SDS011;39421;53.204;6.568;2022-09-29T10:38:50;3.47;;;2.20;;
53533;SDS011;39421;53.204;6.568;2022-09-29T10:41:17;4.45;;;1.88;;
53533;SDS011;39421;53.204;6.568;2022-09-29T10:43:44;3.33;;;2.03;;
53533;SDS011;39421;53.204;6.568;2022-09-29T10:46:33;3.15;;;1.70;;
53533;SDS011;39421;53.204;6.568;2022-09-29T10:52:04;2.10;;;1.42;;
53533;SDS011;39421;53.204;6.568;2022-09-29T10:54:36;4.57;;;1.42;;
53533;SDS011;39421;53.204;6.568;2022-09-29T10:57:13;5.35;;;2.17;;
53533;SDS011;39421;53.204;6.568;2022-09-29T10:59:47;4.32;;;1.75;;
53533;SDS011;39421;53.204;6.568;2022-09-29T11:02:25;2.10;;;1.58;;
53533;SDS011;39421;53.204;6.568;2022-09-29T11:04:57;2.90;;;1.70;;
53533;SDS011;39421;53.204;6.568;2022-09-29T11:07:27;2.70;;;1.80;;
53533;SDS011;39421;53.204;6.568;2022-09-29T11:09:53;4.05;;;1.90;;
53533;SDS011;39421;53.204;6.568;2022-09-29T11:14:56;4.28;;;1.92;;
53533;SDS011;39421;53.204;6.568;2022-09-29T11:17:27;3.20;;;1.85;;
53533;SDS011;39421;53.204;6.568;2022-09-29T11:19:59;4.32;;;1.90;;
53533;SDS011;39421;53.204;6.568;2022-09-29T11:27:42;3.17;;;1.77;;
53533;SDS011;39421;53.204;6.568;2022-09-29T11:30:50;5.30;;;1.70;;
53533;SDS011;39421;53.204;6.568;2022-09-29T11:36:37;3.60;;;1.55;;
53533;SDS011;39421;53.204;6.568;2022-09-29T11:41:47;2.47;;;1.52;;
53533;SDS011;39421;53.204;6.568;2022-09-29T11:49:46;3.20;;;1.65;;
53533;SDS011;39421;53.204;6.568;2022-09-29T11:52:27;5.40;;;1.90;;
53533;SDS011;39421;53.204;6.568;2022-09-29T11:57:49;2.90;;;1.40;;
53533;SDS011;39421;53.204;6.568;2022-09-29T12:00:18;2.20;;;1.30;;
53533;SDS011;39421;53.204;6.568;2022-09-29T12:05:41;2.60;;;1.30;;
53533;SDS011;39421;53.204;6.568;2022-09-29T12:16:28;1.50;;;0.75;;
53533;SDS011;39421;53.204;6.568;2022-09-29T12:18:58;1.50;;;0.80;;
53533;SDS011;39421;53.204;6.568;2022-09-29T12:21:38;2.08;;;0.90;;
53533;SDS011;39421;53.204;6.568;2022-09-29T12:24:12;3.23;;;1.10;;
53533;SDS011;39421;53.204;6.568;2022-09-29T12:26:58;3.22;;;1.20;;
53533;SDS011;39421;53.204;6.568;2022-09-29T12:29:33;4.70;;;1.30;;
53533;SDS011;39421;53.204;6.568;2022-09-29T12:32:10;3.63;;;1.10;;
53533;SDS011;39421;53.204;6.568;2022-09-29T12:34:52;2.78;;;1.08;;
53533;SDS011;39421;53.204;6.568;2022-09-29T12:37:28;2.83;;;1.13;;
53533;SDS011;39421;53.204;6.568;2022-09-29T12:40:11;1.65;;;0.90;;
53533;SDS011;39421;53.204;6.568;2022-09-29T12:42:58;0.93;;;0.80;;
53533;SDS011;39421;53.204;6.568;2022-09-29T12:56:34;1.03;;;0.90;;
53533;SDS011;39421;53.204;6.568;2022-09-29T12:59:05;5.40;;;1.95;;
53533;SDS011;39421;53.204;6.568;2022-09-29T13:01:47;3.80;;;2.00;;
53533;SDS011;39421;53.204;6.568;2022-09-29T13:21:12;3.13;;;1.30;;
53533;SDS011;39421;53.204;6.568;2022-09-29T13:27:25;7.85;;;2.05;;
53533;SDS011;39421;53.204;6.568;2022-09-29T13:30:02;1.88;;;1.10;;
53533;SDS011;39421;53.204;6.568;2022-09-29T13:32:53;1.52;;;0.85;;
53533;SDS011;39421;53.204;6.568;2022-09-29T13:35:36;1.60;;;0.90;;
53533;SDS011;39421;53.204;6.568;2022-09-29T13:38:12;1.25;;;0.82;;
53533;SDS011;39421;53.204;6.568;2022-09-29T13:41:07;1.92;;;0.80;;
53533;SDS011;39421;53.204;6.568;2022-09-29T13:54:45;6.07;;;1.05;;
53533;SDS011;39421;53.204;6.568;2022-09-29T13:59:42;1.83;;;0.65;;
53533;SDS011;39421;53.204;6.568;2022-09-29T14:05:32;1.13;;;0.60;;
53533;SDS011;39421;53.204;6.568;2022-09-29T14:13:07;1.60;;;0.70;;
53533;SDS011;39421;53.204;6.568;2022-09-29T14:15:50;5.18;;;0.82;;
53533;SDS011;39421;53.204;6.568;2022-09-29T14:21:51;1.55;;;0.73;;
53533;SDS011;39421;53.204;6.568;2022-09-29T14:30:03;1.60;;;0.80;;
53533;SDS011;39421;53.204;6.568;2022-09-29T14:32:45;3.70;;;1.35;;
53533;SDS011;39421;53.204;6.568;2022-09-29T14:40:51;0.98;;;0.40;;
53533;SDS011;39421;53.204;6.568;2022-09-29T15:03:12;3.28;;;1.27;;
53533;SDS011;39421;53.204;6.568;2022-09-29T15:06:08;3.00;;;1.27;;
53533;SDS011;39421;53.204;6.568;2022-09-29T15:08:38;3.22;;;1.20;;
53533;SDS011;39421;53.204;6.568;2022-09-29T15:11:26;6.18;;;1.60;;
53533;SDS011;39421;53.204;6.568;2022-09-29T15:13:54;2.20;;;1.30;;
53533;SDS011;39421;53.204;6.568;2022-09-29T15:16:25;2.80;;;1.30;;
53533;SDS011;39421;53.204;6.568;2022-09-29T15:21:35;1.50;;;1.10;;
53533;SDS011;39421;53.204;6.568;2022-09-29T15:27:15;2.25;;;1.05;;
53533;SDS011;39421;53.204;6.568;2022-09-29T15:29:44;1.23;;;0.80;;
53533;SDS011;39421;53.204;6.568;2022-09-29T15:32:18;1.25;;;0.88;;
53533;SDS011;39421;53.204;6.568;2022-09-29T15:34:45;1.60;;;0.90;;
53533;SDS011;39421;53.204;6.568;2022-09-29T15:37:12;1.07;;;0.70;;
53533;SDS011;39421;53.204;6.568;2022-09-29T15:39:42;1.73;;;0.90;;
53533;SDS011;39421;53.204;6.568;2022-09-29T15:42:21;4.03;;;1.00;;
53533;SDS011;39421;53.204;6.568;2022-09-29T15:45:00;1.17;;;0.88;;
53533;SDS011;39421;53.204;6.568;2022-09-29T15:47:33;1.33;;;0.80;;
53533;SDS011;39421;53.204;6.568;2022-09-29T15:50:05;2.53;;;1.20;;
53533;SDS011;39421;53.204;6.568;2022-09-29T15:52:48;2.15;;;1.20;;
53533;SDS011;39421;53.204;6.568;2022-09-29T15:55:21;2.40;;;1.20;;
53533;SDS011;39421;53.204;6.568;2022-09-29T15:57:48;1.50;;;0.88;;
53533;SDS011;39421;53.204;6.568;2022-09-29T16:02:45;1.95;;;0.90;;
53533;SDS011;39421;53.204;6.568;2022-09-29T16:05:31;1.05;;;0.80;;
53533;SDS011;39421;53.204;6.568;2022-09-29T16:08:01;1.60;;;0.82;;
53533;SDS011;39421;53.204;6.568;2022-09-29T16:10:31;2.50;;;0.90;;
53533;SDS011;39421;53.204;6.568;2022-09-29T16:13:22;1.98;;;1.02;;
53533;SDS011;39421;53.204;6.568;2022-09-29T16:15:53;1.90;;;1.00;;
53533;SDS011;39421;53.204;6.568;2022-09-29T16:18:23;1.75;;;1.00;;
53533;SDS011;39421;53.204;6.568;2022-09-29T16:21:06;3.38;;;1.35;;
53533;SDS011;39421;53.204;6.568;2022-09-29T16:23:36;1.92;;;1.10;;
53533;SDS011;39421;53.204;6.568;2022-09-29T16:28:31;2.17;;;1.00;;
53533;SDS011;39421;53.204;6.568;2022-09-29T16:31:02;1.65;;;0.90;;
53533;SDS011;39421;53.204;6.568;2022-09-29T16:33:32;2.17;;;0.90;;
53533;SDS011;39421;53.204;6.568;2022-09-29T16:36:02;1.83;;;1.00;;
53533;SDS011;39421;53.204;6.568;2022-09-29T16:38:38;1.42;;;0.73;;
53533;SDS011;39421;53.204;6.568;2022-09-29T16:41:28;2.42;;;1.20;;
53533;SDS011;39421;53.204;6.568;2022-09-29T16:46:31;1.77;;;1.20;;
53533;SDS011;39421;53.204;6.568;2022-09-29T16:48:58;2.13;;;0.90;;
53533;SDS011;39421;53.204;6.568;2022-09-29T16:51:24;2.17;;;1.10;;
53533;SDS011;39421;53.204;6.568;2022-09-29T16:53:51;2.08;;;1.00;;
53533;SDS011;39421;53.204;6.568;2022-09-29T16:56:27;2.25;;;1.20;;
53533;SDS011;39421;53.204;6.568;2022-09-29T17:01:40;1.90;;;1.30;;
53533;SDS011;39421;53.204;6.568;2022-09-29T17:04:07;1.48;;;1.10;;
53533;SDS011;39421;53.204;6.568;2022-09-29T17:06:34;2.15;;;1.45;;
53533;SDS011;39421;53.204;6.568;2022-09-29T17:09:00;2.20;;;1.33;;
53533;SDS011;39421;53.204;6.568;2022-09-29T17:11:29;2.55;;;1.30;;
53533;SDS011;39421;53.204;6.568;2022-09-29T17:13:55;1.90;;;1.50;;
53533;SDS011;39421;53.204;6.568;2022-09-29T17:16:22;2.13;;;1.30;;
53533;SDS011;39421;53.204;6.568;2022-09-29T17:18:49;1.85;;;1.48;;
53533;SDS011;39421;53.204;6.568;2022-09-29T17:21:17;2.00;;;1.20;;
53533;SDS011;39421;53.204;6.568;2022-09-29T17:23:43;2.53;;;1.48;;
53533;SDS011;39421;53.204;6.568;2022-09-29T17:26:19;1.80;;;1.30;;
53533;SDS011;39421;53.204;6.568;2022-09-29T17:29:09;2.50;;;1.65;;
53533;SDS011;39421;53.204;6.568;2022-09-29T17:31:35;2.35;;;1.60;;
53533;SDS011;39421;53.204;6.568;2022-09-29T17:34:00;1.80;;;1.43;;
53533;SDS011;39421;53.204;6.568;2022-09-29T17:36:26;2.20;;;1.70;;
53533;SDS011;39421;53.204;6.568;2022-09-29T17:38:52;2.30;;;1.60;;
53533;SDS011;39421;53.204;6.568;2022-09-29T17:41:18;2.00;;;1.40;;
53533;SDS011;39421;53.204;6.568;2022-09-29T17:43:44;2.55;;;1.50;;
53533;SDS011;39421;53.204;6.568;2022-09-29T17:46:10;2.67;;;1.50;;
53533;SDS011;39421;53.204;6.568;2022-09-29T17:48:37;2.25;;;1.40;;
53533;SDS011;39421;53.204;6.568;2022-09-29T17:51:02;2.42;;;1.33;;
53533;SDS011;39421;53.204;6.568;2022-09-29T17:53:29;1.95;;;1.50;;
53533;SDS011;39421;53.204;6.568;2022-09-29T17:55:55;2.40;;;1.27;;
53533;SDS011;39421;53.204;6.568;2022-09-29T17:58:22;1.73;;;1.40;;
53533;SDS011;39421;53.204;6.568;2022-09-29T18:00:52;1.98;;;1.38;;
53533;SDS011;39421;53.204;6.568;2022-09-29T18:03:19;1.92;;;1.40;;
53533;SDS011;39421;53.204;6.568;2022-09-29T18:05:47;1.90;;;1.55;;
53533;SDS011;39421;53.204;6.568;2022-09-29T18:08:20;1.98;;;1.60;;
53533;SDS011;39421;53.204;6.568;2022-09-29T18:10:49;2.10;;;1.65;;
53533;SDS011;39421;53.204;6.568;2022-09-29T18:13:17;3.20;;;1.90;;
53533;SDS011;39421;53.204;6.568;2022-09-29T18:15:43;2.42;;;1.70;;
53533;SDS011;39421;53.204;6.568;2022-09-29T18:18:10;1.88;;;1.45;;
53533;SDS011;39421;53.204;6.568;2022-09-29T18:20:39;2.30;;;1.35;;
53533;SDS011;39421;53.204;6.568;2022-09-29T18:23:06;2.38;;;1.40;;
53533;SDS011;39421;53.204;6.568;2022-09-29T18:25:32;2.10;;;1.50;;